Aarschot, Belgium
Current Conditions -  °F | °C
As of 2:25 PM on Monday 24 Nov 2014 (Local Time) from EBDT Reporting Station
Scattered Clouds Scattered Clouds  
Wind Chill: 50°   Ceiling: Unl
Heat Index: 50°   Visibility: 6mi
Dew Point: 39°   Wind: 1mph
Humidity: 66%   Direction: NA
Pressure: 30.3"   Gusts: NA
Location:  50.99°N, 4.84°E
Report Text: EBDT 241325Z VRB01KT 9999 FEW026 SCT250 10/04 Q1026 BLU BLU
Loading
Personal Weather Stations






























Interactive Weather Map New forecast layout! Learn more

10-Day Weather Forecast

Advertisements
Track Severe Weather on mobile